createdAt,value
2023-05-17T00:03:36.090Z,57.05
2023-05-17T00:08:38.876Z,57.17
2023-05-17T00:13:42.348Z,57.20
2023-05-17T00:18:46.678Z,57.46
2023-05-17T00:23:49.508Z,57.55
2023-05-17T00:28:52.283Z,57.45
2023-05-17T00:33:56.485Z,57.74
2023-05-17T00:38:59.323Z,57.72
2023-05-17T00:44:02.175Z,58.16
2023-05-17T00:49:06.657Z,58.32
2023-05-17T00:54:10.306Z,58.19
2023-05-17T00:59:14.997Z,58.45
2023-05-17T01:04:19.811Z,58.62
2023-05-17T01:09:23.056Z,58.75
2023-05-17T01:14:41.273Z,58.74
2023-05-17T01:19:58.115Z,58.53
2023-05-17T01:25:11.897Z,58.88
2023-05-17T01:30:18.111Z,58.83
2023-05-17T01:35:20.971Z,59.25
2023-05-17T01:40:24.688Z,59.28
2023-05-17T01:45:33.608Z,59.26
2023-05-17T01:50:37.802Z,59.60
2023-05-17T01:55:45.852Z,59.70
2023-05-17T02:00:53.422Z,60.22
2023-05-17T02:05:56.202Z,59.96
2023-05-17T02:10:59.059Z,60.16
2023-05-17T02:16:03.981Z,60.25
2023-05-17T02:21:08.798Z,60.36
2023-05-17T02:26:12.632Z,60.39
2023-05-17T02:31:16.762Z,60.36
2023-05-17T02:36:19.562Z,60.72
2023-05-17T02:41:22.400Z,60.76
2023-05-17T02:46:28.270Z,60.46
2023-05-17T02:51:31.191Z,60.75
2023-05-17T02:56:34.079Z,60.69
2023-05-17T03:01:38.457Z,60.73
2023-05-17T03:06:41.446Z,60.86
2023-05-17T03:11:44.732Z,60.98
2023-05-17T03:16:56.097Z,61.35
2023-05-17T03:21:59.553Z,61.33
2023-05-17T03:27:02.529Z,61.71
2023-05-17T03:32:07.986Z,61.58
2023-05-17T03:37:11.013Z,61.18
2023-05-17T03:42:14.247Z,61.19
2023-05-17T03:47:19.250Z,61.10
2023-05-17T03:52:22.072Z,61.03
2023-05-17T03:57:25.355Z,60.69
2023-05-17T04:02:29.602Z,60.47
2023-05-17T04:07:32.485Z,60.25
2023-05-17T04:12:35.343Z,60.21
2023-05-17T04:17:39.570Z,60.15
2023-05-17T04:22:42.388Z,60.00
2023-05-17T04:27:47.437Z,60.00
2023-05-17T04:32:51.978Z,59.85
2023-05-17T04:37:55.372Z,59.88
2023-05-17T04:42:58.674Z,59.67
2023-05-17T04:48:04.203Z,59.67
2023-05-17T04:53:08.763Z,59.81
2023-05-17T04:58:13.084Z,59.84
2023-05-17T05:03:17.450Z,59.71
2023-05-17T05:08:21.872Z,59.74
2023-05-17T05:13:24.868Z,59.83
2023-05-17T05:18:30.822Z,59.80
2023-05-17T05:23:34.427Z,59.61
2023-05-17T05:28:37.564Z,59.75
2023-05-17T05:33:42.923Z,59.52
2023-05-17T05:38:46.018Z,59.53
2023-05-17T05:43:48.872Z,59.47
2023-05-17T05:48:53.401Z,59.60
2023-05-17T05:53:56.451Z,59.40
2023-05-17T05:58:59.324Z,59.31
2023-05-17T06:04:04.185Z,59.34
2023-05-17T06:09:07.480Z,59.39
2023-05-17T06:14:11.333Z,59.24
2023-05-17T06:19:15.604Z,59.17
2023-05-17T06:24:18.640Z,59.05
2023-05-17T06:29:21.410Z,59.01
2023-05-17T06:34:25.553Z,59.17
2023-05-17T06:39:28.597Z,59.06
2023-05-17T06:44:31.558Z,59.21
2023-05-17T06:49:36.091Z,59.25
2023-05-17T06:54:38.956Z,59.16
2023-05-17T06:59:42.806Z,59.06
2023-05-17T07:04:47.109Z,59.05
2023-05-17T07:09:50.037Z,58.87
2023-05-17T07:14:53.090Z,51.93
2023-05-17T07:19:57.460Z,47.61
2023-05-17T07:25:00.501Z,46.80
2023-05-17T07:30:04.075Z,46.54
2023-05-17T07:35:08.890Z,46.52
2023-05-17T07:40:12.796Z,46.14
2023-05-17T07:45:16.048Z,45.67
2023-05-17T07:50:20.363Z,46.74
2023-05-17T07:55:23.234Z,45.44
2023-05-17T08:00:27.813Z,46.21
2023-05-17T08:05:32.319Z,46.15
2023-05-17T08:10:36.615Z,46.92
2023-05-17T08:15:39.672Z,47.73
2023-05-17T08:20:44.241Z,48.30
2023-05-17T08:25:47.133Z,48.84
2023-05-17T08:30:50.106Z,49.55
2023-05-17T08:35:57.799Z,49.75
2023-05-17T08:41:02.126Z,50.39
2023-05-17T08:46:05.280Z,50.90
2023-05-17T08:51:11.698Z,51.02
2023-05-17T08:56:18.644Z,51.37
2023-05-17T09:01:32.277Z,51.61
2023-05-17T09:06:43.560Z,51.69
2023-05-17T09:11:46.584Z,51.98
2023-05-17T09:16:57.370Z,52.03
2023-05-17T09:22:02.823Z,52.18
2023-05-17T09:27:05.990Z,52.38
2023-05-17T09:32:21.654Z,52.62
2023-05-17T09:37:27.135Z,52.70
2023-05-17T09:42:30.021Z,52.73
2023-05-17T09:47:34.165Z,52.75
2023-05-17T09:52:40.075Z,52.81
2023-05-17T09:57:44.480Z,52.81
2023-05-17T10:02:51.076Z,52.95
2023-05-17T10:07:57.546Z,53.25
2023-05-17T10:13:02.030Z,53.28
2023-05-17T10:18:07.862Z,53.17
2023-05-17T10:23:13.003Z,53.22
2023-05-17T10:28:18.482Z,53.42
2023-05-17T10:33:21.985Z,53.30
2023-05-17T10:38:38.744Z,53.41
2023-05-17T10:43:47.027Z,46.38
2023-05-17T10:48:51.969Z,43.45
2023-05-17T10:54:12.026Z,42.88
2023-05-17T10:59:17.505Z,42.49
2023-05-17T11:04:25.618Z,42.67
2023-05-17T11:09:33.430Z,43.05
2023-05-17T11:14:50.095Z,42.57
2023-05-17T11:20:13.406Z,42.18
2023-05-17T11:25:19.698Z,41.40
2023-05-17T11:30:26.724Z,41.45
2023-05-17T11:35:33.244Z,43.25
2023-05-17T11:40:37.852Z,45.33
2023-05-17T11:45:43.445Z,46.14
2023-05-17T11:50:48.824Z,46.12
2023-05-17T11:55:54.551Z,46.76
2023-05-17T12:00:59.398Z,47.04
2023-05-17T12:06:05.911Z,47.55
2023-05-17T12:11:13.462Z,47.92
2023-05-17T12:16:18.494Z,47.97
2023-05-17T12:21:23.274Z,48.06
2023-05-17T12:26:28.482Z,48.25
2023-05-17T12:31:34.747Z,48.27
2023-05-17T12:36:38.240Z,48.15
2023-05-17T12:41:44.046Z,48.15
2023-05-17T12:46:50.489Z,48.14
2023-05-17T12:51:53.295Z,48.22
2023-05-17T12:56:57.887Z,48.01
2023-05-17T13:02:00.956Z,47.82
2023-05-17T13:07:06.244Z,48.88
2023-05-17T13:12:10.495Z,49.09
2023-05-17T13:17:17.856Z,49.92
2023-05-17T13:22:20.786Z,51.64
2023-05-17T13:27:24.959Z,52.34
2023-05-17T13:32:27.881Z,52.76
2023-05-17T13:37:30.792Z,53.18
2023-05-17T13:42:35.121Z,53.44
2023-05-17T13:47:38.104Z,53.20
2023-05-17T13:52:42.445Z,53.02
2023-05-17T13:57:46.909Z,52.76
2023-05-17T14:02:50.431Z,52.72
2023-05-17T14:07:54.245Z,52.52
2023-05-17T14:12:58.741Z,52.21
2023-05-17T14:18:01.736Z,52.23
2023-05-17T14:23:04.889Z,52.17
2023-05-17T14:28:09.358Z,52.16
2023-05-17T14:33:12.589Z,51.70
2023-05-17T14:38:15.647Z,51.43
2023-05-17T14:43:20.948Z,51.52
2023-05-17T14:48:23.927Z,51.80
2023-05-17T14:53:29.197Z,51.75
2023-05-17T14:58:33.407Z,51.68
2023-05-17T15:03:36.440Z,51.82
2023-05-17T15:08:39.733Z,51.36
2023-05-17T15:13:43.974Z,51.45
2023-05-17T15:18:46.862Z,51.29
2023-05-17T15:23:50.752Z,51.35
2023-05-17T15:28:56.151Z,51.40
2023-05-17T15:33:59.223Z,51.50
2023-05-17T15:39:02.144Z,51.62
2023-05-17T15:44:09.157Z,51.99
2023-05-17T15:49:12.328Z,52.20
2023-05-17T15:54:15.823Z,52.37
2023-05-17T15:59:20.031Z,53.04
2023-05-17T16:04:22.978Z,53.21
2023-05-17T16:09:26.236Z,53.49
2023-05-17T16:14:30.512Z,53.65
2023-05-17T16:19:34.119Z,53.87
2023-05-17T16:24:37.576Z,54.21
2023-05-17T16:29:41.766Z,54.14
2023-05-17T16:34:44.638Z,52.95
2023-05-17T16:39:47.520Z,51.86
2023-05-17T16:44:52.664Z,50.61
2023-05-17T16:49:56.555Z,50.51
2023-05-17T16:55:03.445Z,49.85
2023-05-17T17:00:11.270Z,49.50
2023-05-17T17:05:14.224Z,48.78
2023-05-17T17:10:17.196Z,47.87
2023-05-17T17:15:21.871Z,47.63
2023-05-17T17:20:24.991Z,46.98
2023-05-17T17:25:28.270Z,46.50
2023-05-17T17:30:32.687Z,46.88
2023-05-17T17:35:35.656Z,46.57
2023-05-17T17:40:38.480Z,46.36
2023-05-17T17:45:42.843Z,46.18
2023-05-17T17:50:45.610Z,45.99
2023-05-17T17:55:48.651Z,45.83
2023-05-17T18:00:53.716Z,45.43
2023-05-17T18:05:56.510Z,45.58
2023-05-17T18:10:59.439Z,45.26
2023-05-17T18:16:03.902Z,45.48
2023-05-17T18:21:06.929Z,45.20
2023-05-17T18:26:09.874Z,45.64
2023-05-17T18:31:14.945Z,45.74
2023-05-17T18:36:17.838Z,46.02
2023-05-17T18:41:20.859Z,46.13
2023-05-17T18:46:25.073Z,45.76
2023-05-17T18:51:28.933Z,46.12
2023-05-17T18:56:32.680Z,46.07
2023-05-17T19:01:36.972Z,46.29
2023-05-17T19:06:41.367Z,46.03
2023-05-17T19:11:44.339Z,46.46
2023-05-17T19:16:50.177Z,46.56
2023-05-17T19:21:53.078Z,46.82
2023-05-17T19:26:55.946Z,46.63
2023-05-17T19:32:00.278Z,47.04
2023-05-17T19:37:03.116Z,47.05
2023-05-17T19:42:06.445Z,47.32
2023-05-17T19:47:10.657Z,47.43
2023-05-17T19:52:13.543Z,47.58
2023-05-17T19:57:16.428Z,47.69
2023-05-17T20:02:20.727Z,47.74
2023-05-17T20:07:26.084Z,47.61
2023-05-17T20:12:29.162Z,47.53
2023-05-17T20:17:33.554Z,47.57
2023-05-17T20:22:37.772Z,48.06
2023-05-17T20:27:40.609Z,47.92
2023-05-17T20:32:44.928Z,48.15
2023-05-17T20:37:47.737Z,48.27
2023-05-17T20:42:52.999Z,48.35
2023-05-17T20:47:57.255Z,48.66
2023-05-17T20:53:00.058Z,48.54
2023-05-17T20:58:02.899Z,48.43
2023-05-17T21:03:09.328Z,48.80
2023-05-17T21:08:13.251Z,48.68
2023-05-17T21:13:16.080Z,48.92
2023-05-17T21:18:20.329Z,48.87
2023-05-17T21:23:23.210Z,49.28
2023-05-17T21:28:26.100Z,49.26
2023-05-17T21:33:31.783Z,49.18
2023-05-17T21:38:34.592Z,49.01
2023-05-17T21:43:37.482Z,49.38
2023-05-17T21:48:41.941Z,49.31
2023-05-17T21:53:45.167Z,49.16
2023-05-17T21:58:48.087Z,49.18
2023-05-17T22:03:53.408Z,49.45
2023-05-17T22:08:56.372Z,49.67
2023-05-17T22:13:59.333Z,49.43
2023-05-17T22:19:03.916Z,49.63
2023-05-17T22:24:07.662Z,49.70
2023-05-17T22:29:10.667Z,50.05
2023-05-17T22:34:15.646Z,49.88
2023-05-17T22:39:18.507Z,50.37
2023-05-17T22:44:21.961Z,50.44
2023-05-17T22:49:26.379Z,50.49
2023-05-17T22:54:29.262Z,50.50
2023-05-17T22:59:33.080Z,50.81
2023-05-17T23:04:37.865Z,51.05
2023-05-17T23:09:41.015Z,50.77
2023-05-17T23:14:43.984Z,51.28
2023-05-17T23:19:48.122Z,51.22
2023-05-17T23:24:50.872Z,51.32
2023-05-17T23:29:54.049Z,51.89
2023-05-17T23:35:03.294Z,51.66
2023-05-17T23:40:07.408Z,51.91
2023-05-17T23:45:10.778Z,52.41
2023-05-17T23:50:14.978Z,52.74
2023-05-17T23:55:18.555Z,52.44
